createdAt,value
2018-07-02T00:00:12.124Z,41.09
2018-07-02T00:02:46.134Z,41.31
2018-07-02T00:05:20.328Z,41.05
2018-07-02T00:07:51.306Z,41.23
2018-07-02T00:10:24.698Z,42.03
2018-07-02T00:12:56.720Z,41.75
2018-07-02T00:15:30.072Z,41.84
2018-07-02T00:18:03.714Z,41.59
2018-07-02T00:20:38.207Z,41.51
2018-07-02T00:23:12.537Z,42.41
2018-07-02T00:25:47.153Z,42.12
2018-07-02T00:28:19.621Z,42.87
2018-07-02T00:30:53.913Z,42.35
2018-07-02T00:33:27.915Z,42.55
2018-07-02T00:36:02.473Z,42.78
2018-07-02T00:38:36.795Z,42.63
2018-07-02T00:41:11.158Z,42.71
2018-07-02T00:43:45.750Z,43.35
2018-07-02T00:46:20.281Z,43.75
2018-07-02T00:48:54.673Z,43.44
2018-07-02T00:51:29.168Z,44.17
2018-07-02T00:54:04.653Z,44.16
2018-07-02T00:56:38.822Z,43.33
2018-07-02T00:59:13.263Z,43.57
2018-07-02T01:01:47.784Z,43.50
2018-07-02T01:04:21.956Z,43.99
2018-07-02T01:06:57.193Z,44.08
2018-07-02T01:09:31.497Z,44.00
2018-07-02T01:12:05.529Z,43.72
2018-07-02T01:14:40.405Z,44.56
2018-07-02T01:17:14.805Z,44.52
2018-07-02T01:19:49.289Z,44.32
2018-07-02T01:22:23.548Z,44.44
2018-07-02T01:24:57.615Z,44.28
2018-07-02T01:27:35.725Z,45.21
2018-07-02T01:30:07.396Z,45.26
2018-07-02T01:32:41.666Z,44.82
2018-07-02T01:35:13.160Z,44.96
2018-07-02T01:37:47.262Z,45.06
2018-07-02T01:40:21.704Z,45.58
2018-07-02T01:42:54.641Z,45.89
2018-07-02T01:45:25.621Z,45.63
2018-07-02T01:47:56.943Z,45.45
2018-07-02T01:50:27.685Z,45.53
2018-07-02T01:52:58.835Z,45.94
2018-07-02T01:55:30.175Z,46.14
2018-07-02T01:58:01.305Z,46.46
2018-07-02T02:00:32.758Z,46.59
2018-07-02T02:03:04.261Z,46.70
2018-07-02T02:05:35.573Z,46.76
2018-07-02T02:08:07.889Z,47.19
2018-07-02T02:10:41.049Z,46.85
2018-07-02T02:13:12.345Z,47.65
2018-07-02T02:15:43.791Z,47.50
2018-07-02T02:18:15.150Z,47.71
2018-07-02T02:20:46.520Z,48.13
2018-07-02T02:23:17.881Z,48.14
2018-07-02T02:25:49.241Z,48.62
2018-07-02T02:28:20.554Z,48.32
2018-07-02T02:30:52.012Z,48.01
2018-07-02T02:33:23.277Z,48.42
2018-07-02T02:35:54.591Z,48.35
2018-07-02T02:38:25.958Z,48.60
2018-07-02T02:40:57.225Z,48.74
2018-07-02T02:43:29.908Z,48.50
2018-07-02T02:46:01.196Z,49.46
2018-07-02T02:48:32.514Z,48.72
2018-07-02T02:51:03.793Z,49.01
2018-07-02T02:53:35.204Z,48.56
2018-07-02T02:56:06.903Z,49.17
2018-07-02T02:58:38.264Z,49.09
2018-07-02T03:01:09.704Z,49.58
2018-07-02T03:03:41.088Z,49.00
2018-07-02T03:06:12.663Z,49.72
2018-07-02T03:08:43.924Z,49.46
2018-07-02T03:11:15.283Z,49.35
2018-07-02T03:13:46.620Z,49.77
2018-07-02T03:16:18.161Z,50.07
2018-07-02T03:18:49.454Z,50.32
2018-07-02T03:21:20.474Z,49.95
2018-07-02T03:23:52.102Z,49.47
2018-07-02T03:26:23.448Z,49.59
2018-07-02T03:28:58.548Z,50.20
2018-07-02T03:31:30.046Z,49.55
2018-07-02T03:34:01.292Z,50.12
2018-07-02T03:36:32.611Z,50.61
2018-07-02T03:39:04.685Z,50.41
2018-07-02T03:41:36.204Z,50.43
2018-07-02T03:44:07.841Z,50.12
2018-07-02T03:46:39.221Z,50.66
2018-07-02T03:49:12.524Z,50.19
2018-07-02T03:51:43.855Z,50.21
2018-07-02T03:54:15.378Z,50.06
2018-07-02T03:56:46.714Z,50.45
2018-07-02T03:59:18.032Z,50.13
2018-07-02T04:01:52.433Z,50.27
2018-07-02T04:04:24.186Z,50.78
2018-07-02T04:06:55.465Z,50.84
2018-07-02T04:09:26.813Z,51.41
2018-07-02T04:12:01.745Z,51.54
2018-07-02T04:14:32.712Z,51.09
2018-07-02T04:17:04.099Z,51.03
2018-07-02T04:19:36.221Z,51.25
2018-07-02T04:22:07.551Z,51.28
2018-07-02T04:24:38.889Z,51.31
2018-07-02T04:27:10.376Z,51.38
2018-07-02T04:29:41.738Z,51.68
2018-07-02T04:32:14.030Z,51.28
2018-07-02T04:34:45.140Z,51.45
2018-07-02T04:37:16.434Z,51.16
2018-07-02T04:39:47.818Z,51.16
2018-07-02T04:42:18.905Z,50.92
2018-07-02T04:44:50.222Z,51.39
2018-07-02T04:47:21.563Z,51.38
2018-07-02T04:49:52.882Z,51.39
2018-07-02T04:52:24.480Z,51.44
2018-07-02T04:54:55.790Z,51.64
2018-07-02T04:57:27.177Z,51.46
2018-07-02T04:59:58.466Z,51.36
2018-07-02T05:02:29.759Z,51.45
2018-07-02T05:05:00.821Z,51.17
2018-07-02T05:07:31.915Z,50.90
2018-07-02T05:10:02.846Z,50.97
2018-07-02T05:12:33.805Z,51.52
2018-07-02T05:15:04.952Z,50.93
2018-07-02T05:17:36.084Z,51.10
2018-07-02T05:20:07.183Z,51.31
2018-07-02T05:22:38.203Z,50.89
2018-07-02T05:25:09.342Z,51.32
2018-07-02T05:27:40.125Z,50.35
2018-07-02T05:30:11.213Z,50.98
2018-07-02T05:32:42.305Z,51.19
2018-07-02T05:35:13.410Z,51.07
2018-07-02T05:37:44.575Z,50.22
2018-07-02T05:40:15.714Z,50.43
2018-07-02T05:42:46.716Z,50.43
2018-07-02T05:45:17.733Z,50.15
2018-07-02T05:47:48.733Z,50.56
2018-07-02T05:50:20.297Z,49.40
2018-07-02T05:52:51.309Z,49.42
2018-07-02T05:55:22.437Z,49.56
2018-07-02T05:57:53.841Z,49.03
2018-07-02T06:00:25.499Z,48.92
2018-07-02T06:02:56.623Z,48.36
2018-07-02T06:05:27.492Z,47.92
2018-07-02T06:07:58.645Z,47.38
2018-07-02T06:10:29.900Z,47.78
2018-07-02T06:13:00.965Z,47.82
2018-07-02T06:15:32.124Z,47.45
2018-07-02T06:18:03.236Z,46.14
2018-07-02T06:20:34.329Z,46.17
2018-07-02T06:23:05.937Z,44.99
2018-07-02T06:25:37.075Z,45.26
2018-07-02T06:28:08.183Z,44.06
2018-07-02T06:30:39.576Z,43.58
2018-07-02T06:33:10.728Z,43.18
2018-07-02T06:35:41.809Z,42.50
2018-07-02T06:38:12.621Z,42.01
2018-07-02T06:40:43.652Z,40.54
2018-07-02T06:43:14.756Z,40.69
2018-07-02T06:45:45.549Z,40.71
2018-07-02T06:48:16.653Z,40.91
2018-07-02T06:50:47.748Z,40.53
2018-07-02T06:53:18.809Z,39.92
2018-07-02T06:55:49.597Z,39.36
2018-07-02T06:58:21.065Z,38.78
2018-07-02T07:00:52.141Z,38.77
2018-07-02T07:03:22.970Z,39.80
2018-07-02T07:05:54.039Z,38.52
2018-07-02T07:08:25.010Z,38.91
2018-07-02T07:10:56.037Z,37.03
2018-07-02T07:13:27.457Z,36.28
2018-07-02T07:15:58.546Z,37.62
2018-07-02T07:18:30.158Z,37.56
2018-07-02T07:21:01.557Z,37.63
2018-07-02T07:23:32.643Z,36.05
2018-07-02T07:26:03.742Z,37.19
2018-07-02T07:28:35.073Z,36.56
2018-07-02T07:31:06.358Z,37.97
2018-07-02T07:33:37.635Z,36.56
2018-07-02T07:36:09.075Z,36.38
2018-07-02T07:38:40.179Z,35.17
2018-07-02T07:41:14.636Z,35.47
2018-07-02T07:43:45.270Z,34.97
2018-07-02T07:46:16.370Z,34.27
2018-07-02T07:48:47.370Z,33.77
2018-07-02T07:51:18.787Z,33.49
2018-07-02T07:53:49.895Z,33.81
2018-07-02T07:56:21.300Z,32.64
2018-07-02T07:58:52.357Z,32.63
2018-07-02T08:01:23.399Z,31.78
2018-07-02T08:03:54.650Z,32.22
2018-07-02T08:06:25.906Z,31.06
2018-07-02T08:08:56.896Z,30.30
2018-07-02T08:11:28.017Z,30.53
2018-07-02T08:13:59.071Z,30.07
2018-07-02T08:16:30.220Z,29.88
2018-07-02T08:19:01.277Z,30.60
2018-07-02T08:21:32.565Z,31.29
2018-07-02T08:24:04.018Z,29.83
2018-07-02T08:26:35.117Z,28.44
2018-07-02T08:29:06.490Z,28.73
2018-07-02T08:31:37.544Z,28.84
2018-07-02T08:34:08.623Z,28.03
2018-07-02T08:36:39.656Z,28.43
2018-07-02T08:39:12.264Z,27.64
2018-07-02T08:41:43.464Z,28.16
2018-07-02T08:44:14.607Z,26.83
2018-07-02T08:46:45.764Z,27.97
2018-07-02T08:49:16.928Z,28.70
2018-07-02T08:51:48.031Z,26.66
2018-07-02T08:54:19.070Z,27.98
2018-07-02T08:56:50.223Z,27.77
2018-07-02T08:59:21.253Z,27.64
2018-07-02T09:01:52.304Z,28.06
2018-07-02T09:04:23.293Z,27.39
2018-07-02T09:06:54.482Z,26.67
2018-07-02T09:09:25.647Z,27.48
2018-07-02T09:11:56.705Z,26.23
2018-07-02T09:14:27.752Z,25.71
2018-07-02T09:17:07.643Z,26.25
2018-07-02T09:19:38.719Z,25.94
2018-07-02T09:22:09.719Z,26.46
2018-07-02T09:24:40.958Z,25.77
2018-07-02T09:27:11.960Z,25.50
2018-07-02T09:29:42.657Z,25.25
2018-07-02T09:32:13.571Z,26.18
2018-07-02T09:34:44.733Z,25.72
2018-07-02T09:37:15.874Z,25.00
2018-07-02T09:39:46.869Z,25.20
2018-07-02T09:42:17.900Z,23.86
2018-07-02T09:44:48.930Z,24.71
2018-07-02T09:47:19.967Z,25.19
2018-07-02T09:49:51.013Z,24.81
2018-07-02T09:52:22.299Z,24.63
2018-07-02T09:54:53.288Z,23.65
2018-07-02T09:57:24.653Z,24.34
2018-07-02T09:59:55.733Z,25.52
2018-07-02T10:02:26.846Z,24.79
2018-07-02T10:04:57.812Z,25.39
2018-07-02T10:07:28.852Z,25.93
2018-07-02T10:09:59.828Z,24.58
2018-07-02T10:12:30.897Z,26.14
2018-07-02T10:15:02.121Z,24.68
2018-07-02T10:17:33.508Z,25.32
2018-07-02T10:20:05.222Z,25.60
2018-07-02T10:22:36.368Z,25.20
2018-07-02T10:25:09.590Z,24.60
2018-07-02T10:27:40.596Z,25.59
2018-07-02T10:30:42.490Z,25.79
2018-07-02T10:33:16.677Z,25.14
2018-07-02T10:35:47.644Z,24.54
2018-07-02T10:38:18.649Z,25.75
2018-07-02T10:40:49.669Z,25.77
2018-07-02T10:43:20.960Z,24.68
2018-07-02T10:45:52.004Z,24.14
2018-07-02T10:48:23.107Z,25.48
2018-07-02T10:50:54.457Z,24.68
2018-07-02T10:53:25.490Z,25.72
2018-07-02T10:55:56.582Z,25.03
2018-07-02T10:58:27.593Z,26.44
2018-07-02T11:00:58.993Z,25.20
2018-07-02T11:03:30.003Z,24.62
2018-07-02T11:06:01.446Z,25.08
2018-07-02T11:08:32.545Z,25.41
2018-07-02T11:11:03.711Z,26.18
2018-07-02T11:13:34.652Z,25.11
2018-07-02T11:16:05.696Z,25.22
2018-07-02T11:18:36.770Z,24.98
2018-07-02T11:21:07.885Z,25.98
2018-07-02T11:23:38.669Z,25.65
2018-07-02T11:26:09.740Z,25.38
2018-07-02T11:28:41.208Z,26.04
2018-07-02T11:31:12.220Z,26.14
2018-07-02T11:33:43.486Z,25.46
2018-07-02T11:36:14.957Z,26.29
2018-07-02T11:38:46.320Z,26.61
2018-07-02T11:41:17.488Z,25.30
2018-07-02T11:43:48.686Z,26.50
2018-07-02T11:46:20.063Z,25.57
2018-07-02T11:48:56.153Z,27.02
2018-07-02T11:51:27.248Z,25.14
2018-07-02T11:53:58.298Z,26.36
2018-07-02T11:56:29.674Z,25.28
2018-07-02T11:59:00.802Z,26.46
2018-07-02T12:01:31.825Z,25.40
2018-07-02T12:04:02.835Z,25.68
2018-07-02T12:06:33.636Z,26.00
2018-07-02T12:09:06.694Z,25.36
2018-07-02T12:11:37.772Z,26.72
2018-07-02T12:14:08.947Z,26.45
2018-07-02T12:16:39.931Z,26.06
2018-07-02T12:19:11.180Z,26.41
2018-07-02T12:21:42.253Z,26.43
2018-07-02T12:24:14.095Z,27.33
2018-07-02T12:26:45.198Z,26.09
2018-07-02T12:29:16.534Z,25.95
2018-07-02T12:31:47.579Z,25.75
2018-07-02T12:34:18.743Z,26.00
2018-07-02T12:36:49.498Z,26.01
2018-07-02T12:39:20.504Z,26.00
2018-07-02T12:41:51.648Z,26.57
2018-07-02T12:57:47.910Z,25.46
2018-07-02T13:00:19.460Z,25.38
2018-07-02T13:02:50.983Z,26.02
2018-07-02T13:05:22.595Z,25.85
2018-07-02T13:07:54.200Z,25.22
2018-07-02T13:10:25.521Z,25.82
2018-07-02T13:12:57.063Z,25.40
2018-07-02T13:15:28.573Z,25.30
2018-07-02T13:18:00.192Z,25.64
2018-07-02T13:20:31.674Z,26.02
2018-07-02T13:23:03.386Z,26.29
2018-07-02T13:25:34.912Z,26.12
2018-07-02T13:28:06.127Z,25.85
2018-07-02T13:30:37.797Z,25.07
2018-07-02T13:33:09.598Z,24.36
2018-07-02T13:35:40.827Z,26.37
2018-07-02T13:38:11.935Z,25.88
2018-07-02T13:40:43.219Z,26.17
2018-07-02T13:43:14.306Z,25.54
2018-07-02T13:45:45.385Z,25.76
2018-07-02T13:48:16.473Z,25.69
2018-07-02T13:50:47.446Z,26.06
2018-07-02T13:53:18.775Z,25.68
2018-07-02T13:55:49.812Z,25.62
2018-07-02T13:58:20.787Z,26.50
2018-07-02T14:00:52.113Z,25.88
2018-07-02T14:03:23.078Z,25.32
2018-07-02T14:05:54.129Z,25.21
2018-07-02T14:08:25.203Z,26.69
2018-07-02T14:10:56.195Z,25.17
2018-07-02T14:13:27.174Z,25.54
2018-07-02T14:15:58.162Z,25.53
2018-07-02T14:18:29.160Z,26.28
2018-07-02T14:21:00.234Z,25.36
2018-07-02T14:23:31.239Z,25.33
2018-07-02T14:26:01.952Z,24.70
2018-07-02T14:28:32.931Z,26.16
2018-07-02T14:31:04.271Z,24.99
2018-07-02T14:33:35.296Z,24.89
2018-07-02T14:36:06.436Z,24.68
2018-07-02T14:38:37.453Z,26.30
2018-07-02T14:41:08.458Z,25.84
2018-07-02T14:43:39.819Z,24.56
2018-07-02T14:46:11.004Z,25.52
2018-07-02T14:48:41.969Z,25.21
2018-07-02T14:51:14.754Z,24.84
2018-07-02T14:53:45.774Z,25.47
2018-07-02T14:56:17.080Z,25.33
2018-07-02T14:58:48.113Z,25.86
2018-07-02T15:01:18.864Z,25.18
2018-07-02T15:03:51.065Z,25.91
2018-07-02T15:06:22.110Z,25.11
2018-07-02T15:08:53.347Z,25.92
2018-07-02T15:11:24.818Z,24.88
2018-07-02T15:13:55.881Z,26.14
2018-07-02T15:16:26.887Z,25.23
2018-07-02T15:18:57.879Z,25.05
2018-07-02T15:21:29.249Z,25.25
2018-07-02T15:24:00.348Z,26.12
2018-07-02T15:29:17.530Z,26.89
2018-07-02T15:31:50.892Z,26.42
2018-07-02T15:34:22.059Z,26.52
2018-07-02T15:36:53.615Z,26.32
2018-07-02T15:39:24.912Z,26.08
2018-07-02T15:41:56.250Z,26.08
2018-07-02T15:44:27.556Z,26.15
2018-07-02T15:46:59.133Z,26.79
2018-07-02T15:49:30.553Z,26.39
2018-07-02T15:52:01.608Z,25.91
2018-07-02T15:54:32.700Z,26.49
2018-07-02T15:57:04.059Z,26.86
2018-07-02T15:59:35.309Z,27.39
2018-07-02T16:02:06.306Z,27.79
2018-07-02T16:04:37.303Z,26.49
2018-07-02T16:07:09.107Z,27.08
2018-07-02T16:09:40.565Z,25.83
2018-07-02T16:12:11.581Z,26.76
2018-07-02T16:14:42.586Z,27.47
2018-07-02T16:17:14.325Z,27.27
2018-07-02T16:19:45.361Z,26.19
2018-07-02T16:22:16.367Z,26.12
2018-07-02T16:24:47.729Z,26.65
2018-07-02T16:27:19.008Z,26.70
2018-07-02T16:29:49.746Z,26.42
2018-07-02T16:32:20.688Z,26.57
2018-07-02T16:34:51.732Z,27.68
2018-07-02T16:37:22.691Z,27.46
2018-07-02T16:39:53.659Z,26.95
2018-07-02T16:42:24.568Z,26.67
2018-07-02T16:44:55.700Z,27.32
2018-07-02T16:47:26.785Z,27.31
2018-07-02T16:49:58.244Z,27.69
2018-07-02T16:52:29.459Z,26.72
2018-07-02T16:55:00.649Z,28.27
2018-07-02T16:57:32.435Z,26.92
2018-07-02T17:00:03.868Z,26.92
2018-07-02T17:02:35.245Z,27.02
2018-07-02T17:05:06.200Z,26.62
2018-07-02T17:07:37.252Z,27.30
2018-07-02T17:10:09.176Z,26.93
2018-07-02T17:12:40.238Z,28.13
2018-07-02T17:15:11.895Z,27.23
2018-07-02T17:17:43.733Z,27.65
2018-07-02T17:20:15.687Z,27.01
2018-07-02T17:24:49.112Z,28.02
2018-07-02T17:27:37.508Z,27.61
2018-07-02T17:30:10.473Z,27.76
2018-07-02T17:32:41.587Z,27.40
2018-07-02T17:35:12.810Z,27.79
2018-07-02T17:37:44.258Z,28.31
2018-07-02T17:40:15.385Z,28.30
2018-07-02T17:42:46.156Z,28.43
2018-07-02T17:45:17.124Z,27.30
2018-07-02T17:47:48.080Z,28.24
2018-07-02T17:50:19.108Z,27.42
2018-07-02T17:52:50.297Z,28.36
2018-07-02T17:55:21.708Z,28.45
2018-07-02T17:57:52.693Z,27.52
2018-07-02T18:00:23.700Z,28.50
2018-07-02T18:02:54.733Z,28.68
2018-07-02T18:05:25.802Z,28.84
2018-07-02T18:07:56.884Z,28.40
2018-07-02T18:10:27.878Z,28.02
2018-07-02T18:12:58.917Z,28.13
2018-07-02T18:15:29.920Z,27.82
2018-07-02T18:18:00.952Z,27.97
2018-07-02T18:20:32.115Z,28.05
2018-07-02T18:23:03.374Z,29.00
2018-07-02T18:25:34.589Z,29.14
2018-07-02T18:28:05.359Z,29.13
2018-07-02T18:30:36.458Z,28.37
2018-07-02T18:33:08.516Z,28.47
2018-07-02T18:35:39.896Z,27.82
2018-07-02T18:38:11.234Z,28.25
2018-07-02T18:40:42.829Z,28.23
2018-07-02T18:43:16.525Z,28.15
2018-07-02T18:45:47.675Z,28.38
2018-07-02T18:48:18.812Z,27.94
2018-07-02T18:50:49.811Z,28.34
2018-07-02T18:53:20.810Z,27.51
2018-07-02T18:55:52.773Z,28.40
2018-07-02T18:58:23.765Z,28.49
2018-07-02T19:00:54.998Z,27.69
2018-07-02T19:03:26.122Z,28.55
2018-07-02T19:05:57.435Z,27.72
2018-07-02T19:08:28.661Z,28.02
2018-07-02T19:10:59.798Z,28.40
2018-07-02T19:13:30.872Z,27.95
2018-07-02T19:16:01.635Z,28.23
2018-07-02T19:18:32.553Z,27.50
2018-07-02T19:21:03.610Z,28.45
2018-07-02T19:23:35.585Z,28.24
2018-07-02T19:26:07.075Z,27.77
2018-07-02T19:28:38.636Z,28.27
2018-07-02T19:31:09.894Z,27.69
2018-07-02T19:33:41.163Z,28.25
2018-07-02T19:36:12.570Z,27.40
2018-07-02T19:39:15.232Z,27.35
2018-07-02T19:41:46.512Z,27.70
2018-07-02T19:44:17.870Z,27.39
2018-07-02T19:46:49.474Z,27.86
2018-07-02T19:49:20.656Z,28.45
2018-07-02T19:52:54.593Z,27.71
2018-07-02T19:55:26.050Z,28.34
2018-07-02T19:57:57.218Z,28.93
2018-07-02T20:00:28.273Z,28.91
2018-07-02T20:03:05.429Z,29.03
2018-07-02T20:05:36.634Z,29.20
2018-07-02T20:08:07.791Z,29.34
2018-07-02T20:10:39.992Z,28.68
2018-07-02T20:13:11.909Z,29.22
2018-07-02T20:15:48.918Z,29.10
2018-07-02T20:18:25.769Z,29.35
2018-07-02T20:21:08.596Z,29.29
2018-07-02T20:23:41.739Z,29.29
2018-07-02T20:26:13.126Z,28.92
2018-07-02T20:28:48.265Z,29.19
2018-07-02T20:31:19.258Z,29.07
2018-07-02T20:33:54.355Z,29.08
2018-07-02T20:36:30.028Z,29.93
2018-07-02T20:39:02.631Z,29.09
2018-07-02T20:41:37.568Z,29.13
2018-07-02T20:44:13.249Z,30.03
2018-07-02T20:46:44.351Z,29.51
2018-07-02T20:49:15.562Z,29.42
2018-07-02T20:51:50.644Z,29.82
2018-07-02T20:54:24.754Z,29.50
2018-07-02T20:56:55.795Z,28.98
2018-07-02T20:59:29.919Z,29.69
2018-07-02T21:02:04.151Z,30.36
2018-07-02T21:04:48.898Z,30.73
2018-07-02T21:07:27.855Z,29.76
2018-07-02T21:10:01.672Z,30.39
2018-07-02T21:12:37.492Z,31.16
2018-07-02T21:15:11.875Z,31.17
2018-07-02T21:17:48.665Z,30.92
2018-07-02T21:20:27.297Z,31.05
2018-07-02T21:26:44.767Z,30.88
2018-07-02T21:29:29.889Z,32.28
2018-07-02T21:32:16.732Z,31.74
2018-07-02T21:35:04.935Z,33.20
2018-07-02T21:37:55.062Z,33.10
2018-07-02T21:40:40.218Z,33.63
2018-07-02T21:43:16.090Z,34.00
2018-07-02T21:45:51.048Z,33.60
2018-07-02T21:48:23.844Z,34.03
2018-07-02T21:50:59.219Z,33.71
2018-07-02T21:53:34.917Z,33.18
2018-07-02T21:56:06.219Z,34.89
2018-07-02T21:58:40.723Z,33.63
2018-07-02T22:01:21.417Z,34.46
2018-07-02T22:03:57.663Z,34.26
2018-07-02T22:06:33.082Z,34.17
2018-07-02T22:09:11.489Z,34.27
2018-07-02T22:11:46.646Z,33.97
2018-07-02T22:14:22.628Z,34.39
2018-07-02T22:16:58.751Z,34.08
2018-07-02T22:19:32.339Z,33.63
2018-07-02T22:22:07.983Z,33.33
2018-07-02T22:24:42.821Z,34.39
2018-07-02T22:27:19.645Z,34.34
2018-07-02T22:29:55.279Z,35.37
2018-07-02T22:32:30.200Z,35.44
2018-07-02T22:35:03.585Z,36.01
2018-07-02T22:37:37.472Z,37.00
2018-07-02T22:40:11.328Z,36.51
2018-07-02T22:42:42.636Z,36.44
2018-07-02T22:45:18.233Z,37.04
2018-07-02T22:47:53.353Z,37.28
2018-07-02T22:50:25.846Z,38.80
2018-07-02T22:52:56.884Z,38.13
2018-07-02T22:55:29.046Z,39.17
2018-07-02T22:58:00.286Z,38.33
2018-07-02T23:00:31.381Z,38.63
2018-07-02T23:03:05.789Z,39.04
2018-07-02T23:05:37.012Z,39.13
2018-07-02T23:08:11.986Z,40.36
2018-07-02T23:10:46.996Z,40.17
2018-07-02T23:13:22.769Z,39.92
2018-07-02T23:16:03.566Z,39.69
2018-07-02T23:18:36.820Z,40.25
2018-07-02T23:21:12.083Z,40.05
2018-07-02T23:23:45.149Z,40.83
2018-07-02T23:26:19.271Z,40.38
2018-07-02T23:28:55.267Z,40.75
2018-07-02T23:31:28.856Z,40.87
2018-07-02T23:34:01.991Z,40.26
2018-07-02T23:36:33.310Z,41.71
2018-07-02T23:39:11.439Z,41.68
2018-07-02T23:41:44.403Z,42.79
2018-07-02T23:44:19.435Z,41.77
2018-07-02T23:46:54.374Z,42.75
2018-07-02T23:49:29.464Z,42.02
2018-07-02T23:52:04.310Z,41.74
2018-07-02T23:54:39.572Z,41.86
2018-07-02T23:57:13.787Z,42.42
2018-07-02T23:59:50.628Z,42.24
